This is the latest recevied weather packets stored in our database for station/object DG8SF-13. If no packets are shown the sender has not sent any weather packets the latest 10 day(s).
| Time | Temp. | Humidity | Pressure | Rain* | Wind** | Luminosity | Snow |
|---|---|---|---|---|---|---|---|
| 1787751485 | 28.89° C | 48% | 1015.3 hPa | 0 mm | - | - | - |
| 1787751175 | 28.33° C | 51% | 1015.7 hPa | 0 mm | - | - | - |
| 1787750860 | 28.33° C | 50% | 1015.6 hPa | 0 mm | - | - | - |
| 1787750550 | 28.33° C | 49% | 1015.5 hPa | 0 mm | - | - | - |
| 1787750236 | 30° C | 45% | 1015.7 hPa | 0 mm | - | - | - |
| 1787749924 | 31.11° C | 44% | 1015.4 hPa | 0 mm | - | - | - |
| 1787749612 | 31.67° C | 44% | 1015.4 hPa | 0 mm | - | - | - |
| 1787749303 | 31.67° C | 42% | 1015.5 hPa | 0 mm | - | - | - |
| 1787748988 | 30.56° C | 46% | 1015.5 hPa | 0 mm | - | - | - |
| 1787748677 | 31.11° C | 44% | 1015.5 hPa | 0 mm | - | - | - |
| 1787748364 | 30.56° C | 45% | 1015.5 hPa | 0 mm | - | - | - |
| 1787748053 | 30° C | 48% | 1015.5 hPa | 0 mm | - | - | - |
| 1787747741 | 30° C | 47% | 1015.6 hPa | 0 mm | - | - | - |
| 1787747428 | 30.56° C | 46% | 1015.5 hPa | 0 mm | - | - | - |
| 1787747115 | 30° C | 48% | 1015.6 hPa | 0 mm | - | - | - |
| 1787746806 | 29.44° C | 47% | 1015.6 hPa | 0 mm | - | - | - |
| 1787746491 | 28.89° C | 48% | 1015.8 hPa | 0 mm | - | - | - |
| 1787746181 | 28.33° C | 51% | 1015.8 hPa | 0 mm | - | - | - |
| 1787745867 | 28.33° C | 50% | 1015.8 hPa | 0 mm | - | - | - |
| 1787745559 | 28.33° C | 51% | 1015.7 hPa | 0 mm | - | - | - |
| 1787745244 | 28.89° C | 48% | 1015.7 hPa | 0 mm | - | - | - |
| 1787744934 | 28.33° C | 49% | 1015.7 hPa | 0 mm | - | - | - |
| 1787744619 | 28.33° C | 48% | 1015.9 hPa | 0 mm | - | - | - |
| 1787744297 | 29.44° C | 49% | 1015.9 hPa | 0 mm | - | - | - |
| 1787743985 | 27.78° C | 54% | 1016 hPa | 0 mm | - | - | - |
* Rain latest hour (hover to see other rain measurements)
** Current wind speed in m/s (hover to see current wind gust speed)